createdAt,value
2022-12-25T00:01:09.871Z,101059.78
2022-12-25T00:03:37.547Z,101063.22
2022-12-25T00:06:04.548Z,101065.00
2022-12-25T00:08:31.767Z,101069.38
2022-12-25T00:11:08.211Z,101071.13
2022-12-25T00:13:35.249Z,101082.47
2022-12-25T00:16:11.294Z,101079.78
2022-12-25T00:18:38.131Z,101085.06
2022-12-25T00:21:06.663Z,101088.56
2022-12-25T00:23:35.023Z,101092.94
2022-12-25T00:26:06.369Z,101086.78
2022-12-25T00:28:33.210Z,101084.13
2022-12-25T00:31:00.157Z,101081.44
2022-12-25T00:33:27.056Z,101081.44
2022-12-25T00:35:59.161Z,101079.69
2022-12-25T00:38:27.368Z,101076.13
2022-12-25T00:40:54.508Z,101080.50
2022-12-25T00:43:21.596Z,101086.59
2022-12-25T00:46:01.392Z,101090.09
2022-12-25T00:48:29.432Z,101090.03
2022-12-25T00:50:59.729Z,101094.34
2022-12-25T00:53:28.376Z,101095.16
2022-12-25T00:56:01.707Z,101112.63
2022-12-25T00:58:31.007Z,101130.16
2022-12-25T01:00:58.040Z,101137.13
2022-12-25T01:03:25.401Z,101139.69
2022-12-25T01:05:58.670Z,101137.03
2022-12-25T01:08:26.442Z,101135.16
2022-12-25T01:10:58.569Z,101129.81
2022-12-25T01:13:26.587Z,101117.44
2022-12-25T01:15:54.300Z,101117.44
2022-12-25T01:18:23.390Z,101108.53
2022-12-25T01:20:50.569Z,101103.22
2022-12-25T01:23:17.461Z,101104.06
2022-12-25T01:25:44.321Z,101107.53
2022-12-25T01:28:11.098Z,101110.13
2022-12-25T01:30:37.876Z,101120.56
2022-12-25T01:33:04.773Z,101124.06
2022-12-25T01:35:31.535Z,101128.38
2022-12-25T01:37:58.295Z,101130.94
2022-12-25T01:40:25.060Z,101134.41
2022-12-25T01:42:51.862Z,101130.88
2022-12-25T01:45:47.711Z,101139.63
2022-12-25T01:48:20.476Z,101135.25
2022-12-25T01:50:55.295Z,101129.09
2022-12-25T01:53:23.000Z,101122.09
2022-12-25T01:55:55.142Z,101118.56
2022-12-25T01:58:22.234Z,101115.94
2022-12-25T02:00:50.927Z,101126.50
2022-12-25T02:03:19.285Z,101127.41
2022-12-25T02:05:47.346Z,101116.00
2022-12-25T02:08:17.432Z,101130.88
2022-12-25T02:10:44.737Z,101137.03
2022-12-25T02:13:14.490Z,101134.34
2022-12-25T02:16:16.019Z,101133.44
2022-12-25T02:18:52.214Z,101129.88
2022-12-25T02:22:01.949Z,101135.03
2022-12-25T02:25:16.897Z,101140.19
2022-12-25T02:28:11.235Z,101144.53
2022-12-25T02:30:46.488Z,101135.66
2022-12-25T02:33:48.958Z,101123.38
2022-12-25T02:36:23.370Z,101117.16
2022-12-25T02:39:14.548Z,101127.63
2022-12-25T02:41:45.578Z,101131.09
2022-12-25T02:44:51.139Z,101137.25
2022-12-25T02:47:37.433Z,101143.28
2022-12-25T02:50:25.369Z,101135.28
2022-12-25T02:53:12.779Z,101134.38
2022-12-25T02:56:00.012Z,101133.44
2022-12-25T02:58:46.403Z,101130.78
2022-12-25T03:01:37.959Z,101120.28
2022-12-25T03:04:29.365Z,101123.91
2022-12-25T03:07:12.320Z,101117.91
2022-12-25T03:10:04.081Z,101118.97
2022-12-25T03:12:56.983Z,101128.88
2022-12-25T03:15:42.699Z,101131.69
2022-12-25T03:18:17.784Z,101122.28
2022-12-25T03:21:03.091Z,101126.84
2022-12-25T03:23:52.327Z,101115.59
2022-12-25T03:26:37.769Z,101124.47
2022-12-25T03:29:04.857Z,101124.63
2022-12-25T03:31:50.717Z,101115.97
2022-12-25T03:34:54.217Z,101107.25
2022-12-25T03:37:45.541Z,101106.41
2022-12-25T03:41:16.096Z,101108.22
2022-12-25T03:44:19.095Z,101108.28
2022-12-25T03:47:17.993Z,101109.16
2022-12-25T03:50:10.840Z,101126.75
2022-12-25T03:52:57.718Z,101124.94
2022-12-25T03:55:45.189Z,101125.72
2022-12-25T03:58:40.044Z,101116.91
2022-12-25T04:01:25.490Z,101111.44
2022-12-25T04:04:10.682Z,101114.91
2022-12-25T04:06:56.473Z,101116.59
2022-12-25T04:09:42.168Z,101115.75
2022-12-25T04:12:27.704Z,101109.59
2022-12-25T04:15:12.799Z,101108.69
2022-12-25T04:17:57.956Z,101111.38
2022-12-25T04:21:03.158Z,101108.75
2022-12-25T04:23:48.560Z,101100.75
2022-12-25T04:26:34.085Z,101100.75
2022-12-25T04:29:19.371Z,101113.13
2022-12-25T04:32:04.562Z,101102.69
2022-12-25T04:34:54.239Z,101104.47
2022-12-25T04:37:21.040Z,101097.53
2022-12-25T04:39:47.953Z,101089.75
2022-12-25T04:42:15.819Z,101087.09
2022-12-25T04:44:42.623Z,101077.53
2022-12-25T04:47:11.657Z,101081.06
2022-12-25T04:49:39.201Z,101089.88
2022-12-25T04:52:05.968Z,101093.47
2022-12-25T04:54:32.803Z,101096.94
2022-12-25T04:56:59.582Z,101088.28
2022-12-25T04:59:26.328Z,101078.69
2022-12-25T05:01:53.168Z,101086.66
2022-12-25T05:04:20.049Z,101084.06
2022-12-25T05:06:46.787Z,101091.06
2022-12-25T05:09:13.613Z,101094.59
2022-12-25T05:11:40.355Z,101104.28
2022-12-25T05:14:07.132Z,101106.94
2022-12-25T05:16:34.040Z,101093.84
2022-12-25T05:19:00.922Z,101081.56
2022-12-25T05:21:27.683Z,101072.03
2022-12-25T05:23:54.504Z,101072.16
2022-12-25T05:26:25.243Z,101071.41
2022-12-25T05:28:52.180Z,101075.03
2022-12-25T05:31:19.924Z,101071.66
2022-12-25T05:33:50.621Z,101062.13
2022-12-25T05:36:17.485Z,101070.16
2022-12-25T05:38:44.476Z,101070.22
2022-12-25T05:41:11.287Z,101073.84
2022-12-25T05:43:38.037Z,101073.97
2022-12-25T05:46:07.353Z,101071.47
2022-12-25T05:48:36.820Z,101067.13
2022-12-25T05:51:06.812Z,101060.19
2022-12-25T05:53:33.778Z,101063.78
2022-12-25T05:56:03.456Z,101063.91
2022-12-25T05:58:31.692Z,101050.75
2022-12-25T06:00:58.487Z,101044.66
2022-12-25T06:03:26.078Z,101049.16
2022-12-25T06:05:53.160Z,101050.97
2022-12-25T06:08:20.040Z,101034.38
2022-12-25T06:10:47.156Z,101037.91
2022-12-25T06:13:13.972Z,101045.00
2022-12-25T06:15:41.952Z,101040.66
2022-12-25T06:18:08.850Z,101044.16
2022-12-25T06:20:36.154Z,101046.88
2022-12-25T06:23:02.963Z,101030.19
2022-12-25T06:25:29.728Z,101028.47
2022-12-25T06:27:56.464Z,101026.72
2022-12-25T06:30:23.348Z,101028.53
2022-12-25T06:32:50.147Z,101032.06
2022-12-25T06:35:16.970Z,101031.25
2022-12-25T06:37:43.766Z,101038.31
2022-12-25T06:40:10.884Z,101027.81
2022-12-25T06:42:37.677Z,101028.69
2022-12-25T06:45:04.954Z,101028.69
2022-12-25T06:47:31.744Z,101026.06
2022-12-25T06:49:58.496Z,101023.44
2022-12-25T06:52:25.261Z,101023.47
2022-12-25T06:54:52.139Z,101026.06
2022-12-25T06:57:19.377Z,101031.34
2022-12-25T06:59:49.903Z,101020.78
2022-12-25T07:02:24.087Z,101010.22
2022-12-25T07:04:52.045Z,101002.28
2022-12-25T07:07:18.809Z,101011.06
2022-12-25T07:09:45.623Z,101008.38
2022-12-25T07:12:23.324Z,101018.94
2022-12-25T07:14:50.508Z,101017.13
2022-12-25T07:17:18.191Z,101024.13
2022-12-25T07:19:46.858Z,101029.38
2022-12-25T07:22:15.004Z,101038.16
2022-12-25T07:24:42.370Z,101046.91
2022-12-25T07:27:09.251Z,101039.84
2022-12-25T07:29:36.041Z,101027.56
2022-12-25T07:32:02.996Z,101024.91
2022-12-25T07:34:29.943Z,101019.63
2022-12-25T07:36:56.698Z,101008.25
2022-12-25T07:39:23.715Z,101015.31
2022-12-25T07:41:51.167Z,101011.78
2022-12-25T07:44:18.205Z,101010.03
2022-12-25T07:46:45.016Z,101013.53
2022-12-25T07:49:12.279Z,101013.47
2022-12-25T07:51:39.396Z,101011.72
2022-12-25T07:54:06.443Z,101017.88
2022-12-25T07:56:33.523Z,101009.94
2022-12-25T07:59:00.354Z,101009.06
2022-12-25T08:01:28.515Z,101002.88
2022-12-25T08:04:01.965Z,100995.00
2022-12-25T08:06:34.471Z,100986.22
2022-12-25T08:09:12.898Z,100977.47
2022-12-25T08:11:44.836Z,100973.09
2022-12-25T08:14:11.609Z,100964.34
2022-12-25T08:16:41.469Z,100967.97
2022-12-25T08:19:09.181Z,100967.19
2022-12-25T08:21:35.966Z,100950.50
2022-12-25T08:24:03.195Z,100964.69
2022-12-25T08:26:30.019Z,100975.31
2022-12-25T08:28:56.883Z,100978.03
2022-12-25T08:31:27.968Z,100982.53
2022-12-25T08:33:57.807Z,100979.03
2022-12-25T08:36:25.565Z,100998.44
2022-12-25T08:38:55.726Z,100978.28
2022-12-25T08:41:27.642Z,100988.03
2022-12-25T08:43:54.649Z,100993.34
2022-12-25T08:46:21.608Z,101004.84
2022-12-25T08:48:50.315Z,101013.72
2022-12-25T08:51:22.999Z,101008.47
2022-12-25T08:53:51.761Z,101010.31
2022-12-25T08:56:19.730Z,101010.28
2022-12-25T08:58:46.992Z,101019.13
2022-12-25T09:01:14.294Z,101013.88
2022-12-25T09:03:41.368Z,101021.84
2022-12-25T09:06:11.777Z,101009.50
2022-12-25T09:08:44.208Z,101004.22
2022-12-25T09:11:15.046Z,100997.19
2022-12-25T09:13:42.255Z,100993.69
2022-12-25T09:16:13.602Z,100979.59
2022-12-25T09:18:40.745Z,100983.16
2022-12-25T09:21:11.539Z,100978.75
2022-12-25T09:23:38.703Z,100975.28
2022-12-25T09:26:07.952Z,100973.53
2022-12-25T09:28:35.049Z,100973.56
2022-12-25T09:31:02.888Z,100973.59
2022-12-25T09:33:29.770Z,100978.88
2022-12-25T09:36:03.337Z,100997.41
2022-12-25T09:38:30.465Z,100994.78
2022-12-25T09:41:23.483Z,101017.75
2022-12-25T09:44:09.374Z,101019.53
2022-12-25T09:46:47.852Z,101010.75
2022-12-25T09:49:52.739Z,101007.25
2022-12-25T09:52:26.491Z,101010.81
2022-12-25T09:55:27.202Z,101002.03
2022-12-25T09:57:58.445Z,100999.41
2022-12-25T10:00:44.257Z,100989.72
2022-12-25T10:03:41.864Z,100977.38
2022-12-25T10:06:22.918Z,100972.09
2022-12-25T10:09:08.421Z,100978.28
2022-12-25T10:12:05.903Z,100978.31
2022-12-25T10:15:22.143Z,100967.75
2022-12-25T10:18:19.677Z,100961.53
2022-12-25T10:20:52.867Z,100948.34
2022-12-25T10:23:26.314Z,100944.84
2022-12-25T10:25:54.487Z,100930.72
2022-12-25T10:28:37.706Z,100914.88
2022-12-25T10:31:22.677Z,100906.03
2022-12-25T10:33:51.992Z,100897.25
2022-12-25T10:36:26.717Z,100891.09
2022-12-25T10:38:54.424Z,100900.81
2022-12-25T10:41:53.534Z,100897.31
2022-12-25T10:44:24.458Z,100899.97
2022-12-25T10:47:00.520Z,100895.56
2022-12-25T10:49:39.217Z,100888.53
2022-12-25T10:52:25.358Z,100874.38
2022-12-25T10:54:52.868Z,100878.81
2022-12-25T10:57:22.992Z,100883.25
2022-12-25T10:59:55.977Z,100892.09
2022-12-25T11:02:45.344Z,100908.84
2022-12-25T11:05:30.313Z,100912.41
2022-12-25T11:08:00.121Z,100921.25
2022-12-25T11:10:44.057Z,100913.31
2022-12-25T11:13:25.171Z,100921.25
2022-12-25T11:16:10.866Z,100938.03
2022-12-25T11:18:53.599Z,100938.94
2022-12-25T11:21:28.888Z,100927.44
2022-12-25T11:24:15.985Z,100916.94
2022-12-25T11:26:58.325Z,100909.84
2022-12-25T11:29:47.453Z,100893.13
2022-12-25T11:32:41.021Z,100885.16
2022-12-25T11:35:15.843Z,100881.63
2022-12-25T11:37:49.562Z,100878.13
2022-12-25T11:40:34.575Z,100884.31
2022-12-25T11:43:23.785Z,100897.59
2022-12-25T11:46:16.845Z,100896.69
2022-12-25T11:48:49.956Z,100891.41
2022-12-25T11:51:17.679Z,100884.34
2022-12-25T11:53:51.639Z,100879.94
2022-12-25T11:56:23.431Z,100873.78
2022-12-25T11:58:53.762Z,100872.91
2022-12-25T12:01:37.362Z,100852.56
2022-12-25T12:04:29.084Z,100839.34
2022-12-25T12:07:18.155Z,100828.75
2022-12-25T12:10:04.482Z,100815.47
2022-12-25T12:12:53.121Z,100801.34
2022-12-25T12:15:41.482Z,100803.97
2022-12-25T12:18:26.535Z,100808.41
2022-12-25T12:21:17.918Z,100793.38
2022-12-25T12:23:54.328Z,100788.09
2022-12-25T12:26:24.541Z,100789.84
2022-12-25T12:28:55.633Z,100782.75
2022-12-25T12:31:22.934Z,100781.91
2022-12-25T12:33:57.289Z,100773.97
2022-12-25T12:36:35.596Z,100784.56
2022-12-25T12:39:05.016Z,100773.97
2022-12-25T12:41:46.311Z,100781.91
2022-12-25T12:44:16.141Z,100780.16
2022-12-25T12:46:54.101Z,100771.31
2022-12-25T12:49:30.138Z,100769.56
2022-12-25T12:52:23.916Z,100765.13
2022-12-25T12:55:03.377Z,100752.78
2022-12-25T12:57:34.415Z,100749.22
2022-12-25T13:00:08.636Z,100743.94
2022-12-25T13:03:02.978Z,100735.09
2022-12-25T13:05:41.303Z,100731.56
2022-12-25T13:08:23.324Z,100726.25
2022-12-25T13:11:04.697Z,100724.53
2022-12-25T13:13:39.245Z,100721.00
2022-12-25T13:16:13.252Z,100713.94
2022-12-25T13:18:40.256Z,100711.28
2022-12-25T13:21:07.524Z,100713.03
2022-12-25T13:23:37.415Z,100714.78
2022-12-25T13:26:17.198Z,100718.31
2022-12-25T13:28:47.039Z,100721.00
2022-12-25T13:31:15.724Z,100715.69
2022-12-25T13:34:01.156Z,100712.16
2022-12-25T13:36:34.269Z,100713.91
2022-12-25T13:39:01.450Z,100718.31
2022-12-25T13:41:59.293Z,100713.94
2022-12-25T13:44:30.218Z,100711.25
2022-12-25T13:46:57.001Z,100713.94
2022-12-25T13:49:24.398Z,100693.59
2022-12-25T13:51:51.452Z,100688.31
2022-12-25T13:54:19.127Z,100678.59
2022-12-25T13:56:53.476Z,100673.31
2022-12-25T13:59:22.341Z,100670.69
2022-12-25T14:01:50.944Z,100661.84
2022-12-25T14:04:23.883Z,100654.81
2022-12-25T14:06:52.469Z,100664.50
2022-12-25T14:09:19.633Z,100659.19
2022-12-25T14:11:51.579Z,100649.47
2022-12-25T14:14:24.703Z,100648.59
2022-12-25T14:16:56.634Z,100651.25
2022-12-25T14:19:32.510Z,100645.94
2022-12-25T14:22:16.510Z,100632.72
2022-12-25T14:24:43.305Z,100626.53
2022-12-25T14:27:30.424Z,100615.97
2022-12-25T14:30:00.375Z,100608.00
2022-12-25T14:32:30.909Z,100595.66
2022-12-25T14:35:03.382Z,100598.28
2022-12-25T14:37:32.606Z,100581.53
2022-12-25T14:40:05.041Z,100574.47
2022-12-25T14:42:35.022Z,100581.53
2022-12-25T14:45:24.949Z,100589.47
2022-12-25T14:47:55.183Z,100593.88
2022-12-25T14:50:29.106Z,100604.47
2022-12-25T14:52:56.589Z,100610.66
2022-12-25T14:55:29.509Z,100614.19
2022-12-25T14:58:05.882Z,100606.22
2022-12-25T15:00:38.901Z,100603.59
2022-12-25T15:03:17.636Z,100599.19
2022-12-25T15:05:44.562Z,100606.25
2022-12-25T15:08:11.180Z,100594.78
2022-12-25T15:10:59.444Z,100585.06
2022-12-25T15:13:27.890Z,100580.63
2022-12-25T15:16:13.623Z,100587.72
2022-12-25T15:18:44.360Z,100572.69
2022-12-25T15:21:30.381Z,100572.69
2022-12-25T15:23:59.069Z,100573.56
2022-12-25T15:26:29.346Z,100564.75
2022-12-25T15:28:56.222Z,100570.91
2022-12-25T15:31:30.589Z,100566.50
2022-12-25T15:34:01.335Z,100564.75
2022-12-25T15:36:28.536Z,100565.63
2022-12-25T15:38:55.983Z,100570.94
2022-12-25T15:41:49.253Z,100572.66
2022-12-25T15:44:16.471Z,100560.34
2022-12-25T15:46:43.454Z,100544.44
2022-12-25T15:49:10.883Z,100547.94
2022-12-25T15:51:37.852Z,100547.94
2022-12-25T15:54:04.944Z,100549.72
2022-12-25T15:56:46.790Z,100535.59
2022-12-25T15:59:16.223Z,100525.88
2022-12-25T16:01:56.355Z,100512.63
2022-12-25T16:04:25.116Z,100516.16
2022-12-25T16:06:52.598Z,100517.03
2022-12-25T16:09:20.446Z,100519.66
2022-12-25T16:11:48.846Z,100516.13
2022-12-25T16:14:15.653Z,100517.91
2022-12-25T16:16:42.461Z,100511.72
2022-12-25T16:19:09.317Z,100512.63
2022-12-25T16:21:46.387Z,100508.19
2022-12-25T16:24:14.103Z,100516.16
2022-12-25T16:26:41.666Z,100513.50
2022-12-25T16:29:08.495Z,100508.19
2022-12-25T16:31:37.275Z,100497.59
2022-12-25T16:34:05.720Z,100495.81
2022-12-25T16:36:33.272Z,100493.16
2022-12-25T16:39:00.097Z,100489.66
2022-12-25T16:41:26.902Z,100486.09
2022-12-25T16:43:53.674Z,100484.38
2022-12-25T16:46:22.161Z,100479.94
2022-12-25T16:48:49.055Z,100472.88
2022-12-25T16:51:19.337Z,100468.47
2022-12-25T16:53:46.429Z,100460.53
2022-12-25T16:56:20.508Z,100468.47
2022-12-25T16:58:48.062Z,100465.81
2022-12-25T17:01:19.129Z,100457.88
2022-12-25T17:03:47.266Z,100449.03
2022-12-25T17:06:32.275Z,100446.38
2022-12-25T17:09:00.454Z,100449.94
2022-12-25T17:11:30.020Z,100441.97
2022-12-25T17:14:03.423Z,100431.38
2022-12-25T17:16:34.389Z,100425.22
2022-12-25T17:19:05.084Z,100426.09
2022-12-25T17:21:36.600Z,100420.78
2022-12-25T17:24:04.506Z,100415.50
2022-12-25T17:26:32.419Z,100419.03
2022-12-25T17:28:59.522Z,100414.63
2022-12-25T17:31:26.327Z,100411.09
2022-12-25T17:33:53.123Z,100414.63
2022-12-25T17:36:21.685Z,100412.84
2022-12-25T17:38:49.243Z,100406.63
2022-12-25T17:41:21.005Z,100406.63
2022-12-25T17:43:48.140Z,100403.09
2022-12-25T17:46:18.690Z,100395.16
2022-12-25T17:48:46.689Z,100380.16
2022-12-25T17:51:16.892Z,100388.09
2022-12-25T17:53:47.896Z,100374.81
2022-12-25T17:56:16.017Z,100376.59
2022-12-25T17:58:43.045Z,100369.56
2022-12-25T18:01:15.945Z,100367.75
2022-12-25T18:03:44.193Z,100366.00
2022-12-25T18:06:16.040Z,100362.47
2022-12-25T18:08:45.024Z,100359.81
2022-12-25T18:11:23.154Z,100353.59
2022-12-25T18:13:52.144Z,100356.25
2022-12-25T18:16:23.081Z,100362.44
2022-12-25T18:18:52.583Z,100355.38
2022-12-25T18:21:21.932Z,100351.81
2022-12-25T18:23:50.078Z,100358.00
2022-12-25T18:26:18.731Z,100355.31
2022-12-25T18:28:45.569Z,100350.91
2022-12-25T18:31:19.848Z,100344.69
2022-12-25T18:33:47.418Z,100344.72
2022-12-25T18:36:19.924Z,100333.22
2022-12-25T18:38:48.223Z,100332.34
2022-12-25T18:41:15.391Z,100315.53
2022-12-25T18:43:54.194Z,100308.47
2022-12-25T18:46:26.182Z,100312.88
2022-12-25T18:48:55.030Z,100326.09
2022-12-25T18:51:22.116Z,100326.97
2022-12-25T18:53:48.901Z,100324.28
2022-12-25T18:56:18.171Z,100327.78
2022-12-25T18:58:46.503Z,100325.13
2022-12-25T19:01:22.405Z,100324.22
2022-12-25T19:03:50.543Z,100318.03
2022-12-25T19:06:20.469Z,100336.59
2022-12-25T19:08:47.333Z,100321.56
2022-12-25T19:11:14.282Z,100319.75
2022-12-25T19:13:41.095Z,100316.22
2022-12-25T19:16:08.002Z,100316.22
2022-12-25T19:18:34.805Z,100303.84
2022-12-25T19:22:36.374Z,100305.59
2022-12-25T19:25:03.510Z,100301.16
2022-12-25T19:27:30.269Z,100302.94
2022-12-25T19:29:57.027Z,100301.16
2022-12-25T19:32:23.828Z,100290.53
2022-12-25T19:34:50.722Z,100282.56
2022-12-25T19:37:17.487Z,100278.16
2022-12-25T19:39:46.738Z,100278.16
2022-12-25T19:42:16.107Z,100271.06
2022-12-25T19:44:43.401Z,100274.56
2022-12-25T19:47:10.747Z,100280.75
2022-12-25T19:49:37.582Z,100271.91
2022-12-25T19:52:04.763Z,100268.38
2022-12-25T19:54:31.670Z,100264.84
2022-12-25T19:56:58.499Z,100271.88
2022-12-25T19:59:25.273Z,100266.56
2022-12-25T20:01:52.289Z,100263.00
2022-12-25T20:04:19.315Z,100259.44
2022-12-25T20:06:46.188Z,100255.91
2022-12-25T20:09:20.764Z,100258.56
2022-12-25T20:11:48.145Z,100249.69
2022-12-25T20:14:16.495Z,100253.22
2022-12-25T20:16:44.312Z,100254.09
2022-12-25T20:19:15.141Z,100253.16
2022-12-25T20:21:42.201Z,100254.06
2022-12-25T20:24:10.907Z,100262.00
2022-12-25T20:26:39.401Z,100257.56
2022-12-25T20:29:06.797Z,100253.13
2022-12-25T20:31:35.493Z,100261.06
2022-12-25T20:34:08.852Z,100252.19
2022-12-25T20:39:48.529Z,100261.03
